Time;durP1;ratioP1;P1;durP2;ratioP2;P2;SDS_P1;SDS_P2;PMS_P1;PMS_P2;Temp;Humidity;BMP_temperature;BMP_pressure;BME280_temperature;BME280_humidity;BME280_pressure;Samples;Min_cycle;Max_cycle;Signal;HPM_P1;HPM_P2
2021/11/01 00:01:33;;;;;;;16.48;2.60;;;;;;;9.60;92.67;99739.19;5073022;28;20097;-61
2021/11/01 00:04:02;;;;;;;13.95;3.10;;;;;;;9.58;93.12;99727.84;5072969;28;20039;-60
2021/11/01 00:06:31;;;;;;;12.02;3.30;;;;;;;9.59;92.53;99741.00;5073056;28;20024;-70
2021/11/01 00:08:57;;;;;;;13.38;2.33;;;;;;;9.61;92.30;99738.25;5072692;28;20477;-69
2021/11/01 00:11:23;;;;;;;16.88;2.45;;;;;;;9.63;92.05;99731.94;5072788;28;20030;-65
2021/11/01 00:13:49;;;;;;;12.07;2.30;;;;;;;9.60;92.41;99732.09;5072722;28;20034;-60
2021/11/01 00:16:15;;;;;;;18.10;2.50;;;;;;;9.56;92.86;99735.03;5072751;28;20025;-69
2021/11/01 00:18:41;;;;;;;13.55;2.53;;;;;;;9.58;92.23;99733.16;5073205;28;20032;-61
2021/11/01 00:21:06;;;;;;;19.92;3.05;;;;;;;9.57;92.04;99734.94;5073279;28;20024;-62
2021/11/01 00:23:32;;;;;;;10.85;2.67;;;;;;;9.54;92.05;99724.56;5072723;28;20047;-60
2021/11/01 00:25:57;;;;;;;12.45;2.40;;;;;;;9.51;92.68;99727.38;5072949;28;20032;-61
2021/11/01 00:28:23;;;;;;;11.75;2.08;;;;;;;9.50;92.25;99737.09;5073120;28;20073;-70
2021/11/01 00:30:48;;;;;;;12.63;2.45;;;;;;;9.48;92.24;99738.13;5072794;28;20175;-61
2021/11/01 00:33:14;;;;;;;13.07;2.38;;;;;;;9.47;92.58;99733.78;5072621;28;20029;-61
2021/11/01 00:35:39;;;;;;;14.27;2.60;;;;;;;9.44;92.40;99740.09;5072410;28;20048;-61
2021/11/01 00:38:05;;;;;;;10.68;1.95;;;;;;;9.43;92.23;99741.03;5072992;28;20575;-61
2021/11/01 00:40:31;;;;;;;13.88;2.58;;;;;;;9.45;91.73;99731.22;5072727;28;20032;-70
2021/11/01 00:42:56;;;;;;;15.52;2.80;;;;;;;9.48;91.31;99723.13;5073000;28;20023;-70
2021/11/01 00:45:21;;;;;;;15.18;2.47;;;;;;;9.45;91.08;99731.22;5071833;28;20025;-70
2021/11/01 00:47:47;;;;;;;17.95;2.90;;;;;;;9.44;91.07;99726.03;5072840;28;20534;-70
2021/11/01 00:50:14;;;;;;;14.45;2.72;;;;;;;9.42;91.29;99735.84;5072487;28;20025;-61
2021/11/01 00:52:39;;;;;;;9.43;1.88;;;;;;;9.41;91.01;99734.13;5072239;28;20390;-62
2021/11/01 00:55:08;;;;;;;12.38;2.10;;;;;;;9.40;90.82;99730.66;5074081;28;20107;-62
2021/11/01 00:57:34;;;;;;;8.88;2.50;;;;;;;9.38;90.70;99724.59;5076770;28;20472;-61
2021/11/01 01:00:00;;;;;;;11.13;2.05;;;;;;;9.38;89.93;99718.47;5076513;28;20027;-61
2021/11/01 01:02:29;;;;;;;13.23;2.70;;;;;;;9.38;89.93;99718.47;5076253;28;20060;-61
2021/11/01 01:04:54;;;;;;;9.90;2.30;;;;;;;9.39;89.76;99720.19;5076414;28;20027;-61
2021/11/01 01:07:20;;;;;;;13.38;2.17;;;;;;;9.34;90.42;99720.44;5076366;28;20024;-59
2021/11/01 01:09:45;;;;;;;16.20;2.53;;;;;;;9.35;90.19;99719.50;5076655;28;20024;-59
2021/11/01 01:12:11;;;;;;;11.93;2.15;;;;;;;9.34;89.94;99712.50;5076474;28;20027;-67
2021/11/01 01:14:44;;;;;;;10.43;2.33;;;;;;;9.34;89.73;99736.28;5076276;28;20024;-60
2021/11/01 01:17:10;;;;;;;9.52;2.05;;;;;;;9.33;89.33;99708.16;5075767;28;20384;-67
2021/11/01 01:20:37;;;;;;;11.90;2.22;;;;;;;9.33;89.17;99708.16;5076295;28;20037;-61
2021/11/01 01:22:31;;;;;;;10.55;1.80;;;;;;;9.33;88.71;99701.09;5062717;28;20429;-63
2021/11/01 01:25:10;;;;;;;9.07;2.00;;;;;;;9.30;89.18;99703.91;5075919;28;20024;-59
2021/11/01 01:27:36;;;;;;;14.15;2.58;;;;;;;9.25;89.38;99707.75;5059897;28;20055;-70
2021/11/01 01:30:03;;;;;;;9.13;2.47;;;;;;;9.24;89.45;99698.13;5076049;28;20472;-60
2021/11/01 01:32:29;;;;;;;10.70;2.03;;;;;;;9.20;89.29;99684.25;5075711;28;20078;-61
2021/11/01 01:34:54;;;;;;;8.25;2.10;;;;;;;9.20;89.06;99688.69;5075537;28;20474;-62
2021/11/01 01:37:19;;;;;;;7.53;2.03;;;;;;;9.20;88.92;99684.25;5075468;28;20496;-61
2021/11/01 01:39:45;;;;;;;12.60;2.40;;;;;;;9.22;89.08;99676.22;5075769;28;20033;-67
2021/11/01 01:42:11;;;;;;;8.93;2.10;;;;;;;9.23;88.47;99668.19;5076135;28;20135;-61
2021/11/01 01:44:37;;;;;;;11.48;2.08;;;;;;;9.21;89.14;99672.75;5075552;28;20067;-69
2021/11/01 01:47:03;;;;;;;7.82;2.00;;;;;;;9.20;88.82;99663.09;5074947;28;20035;-67
2021/11/01 01:49:28;;;;;;;9.93;2.30;;;;;;;9.18;88.76;99659.69;5075842;28;20502;-64
2021/11/01 01:51:53;;;;;;;11.77;2.47;;;;;;;9.14;89.08;99669.63;5075698;28;20056;-66
2021/11/01 01:54:19;;;;;;;13.00;2.55;;;;;;;9.14;89.40;99674.91;5075798;28;20039;-61
2021/11/01 01:56:44;;;;;;;16.45;2.00;;;;;;;9.10;89.47;99667.22;5075307;28;20032;-60
2021/11/01 01:59:12;;;;;;;13.35;2.85;;;;;;;9.12;89.06;99670.63;5075569;28;20032;-60
2021/11/01 02:01:41;;;;;;;11.90;2.05;;;;;;;9.12;89.29;99657.44;5075312;28;20032;-62
2021/11/01 02:04:06;;;;;;;7.63;2.00;;;;;;;9.11;89.13;99661.84;5075225;28;20021;-62
2021/11/01 02:06:53;;;;;;;10.95;2.10;;;;;;;9.10;89.50;99661.94;5074307;28;20093;-62
2021/11/01 02:09:22;;;;;;;8.50;2.30;;;;;;;9.05;89.33;99662.19;5075015;28;20028;-62
2021/11/01 02:11:52;;;;;;;8.93;2.00;;;;;;;9.08;89.22;99663.81;5075612;28;20024;-67
2021/11/01 02:14:21;;;;;;;10.57;2.15;;;;;;;9.00;89.92;99662.47;5074859;28;20028;-62
2021/11/01 02:16:49;;;;;;;12.45;2.45;;;;;;;8.98;89.43;99666.16;5075110;28;20024;-62
2021/11/01 02:19:17;;;;;;;9.07;2.00;;;;;;;8.95;90.01;99659.25;5074635;28;20089;-72
2021/11/01 02:22:31;;;;;;;9.10;2.13;;;;;;;8.99;89.75;99660.78;5075258;28;20448;-71
2021/11/01 02:25:05;;;;;;;6.15;1.90;;;;;;;9.11;89.22;99668.94;4973309;28;20070;-62
2021/11/01 02:27:33;;;;;;;10.70;1.90;;;;;;;9.11;89.08;99679.50;4973810;28;20058;-62
2021/11/01 02:29:59;;;;;;;11.45;1.88;;;;;;;9.05;89.46;99678.03;4973690;28;20039;-62
2021/11/01 02:32:26;;;;;;;9.02;2.17;;;;;;;9.07;88.61;99675.34;4974007;28;20031;-71
2021/11/01 02:34:52;;;;;;;7.57;1.85;;;;;;;9.09;89.06;99682.22;4973880;28;20031;-62
2021/11/01 02:37:18;;;;;;;9.52;2.15;;;;;;;9.14;88.88;99687.22;4973579;28;20129;-68
2021/11/01 02:39:52;;;;;;;11.93;1.80;;;;;;;9.12;88.90;99676.75;4973894;28;20410;-61
2021/11/01 02:42:18;;;;;;;9.70;2.10;;;;;;;9.15;88.81;99681.84;4973682;28;20038;-62
2021/11/01 02:45:01;;;;;;;6.63;1.88;;;;;;;9.18;88.46;99679.06;4973929;28;20026;-62
2021/11/01 02:47:28;;;;;;;10.73;2.03;;;;;;;9.21;88.34;99675.38;4973730;28;20045;-62
2021/11/01 02:49:57;;;;;;;8.02;2.20;;;;;;;9.24;87.88;99669.06;4973558;28;20510;-63
2021/11/01 02:52:24;;;;;;;7.18;1.67;;;;;;;9.31;87.64;99675.69;4973555;28;20131;-67
2021/11/01 02:54:49;;;;;;;10.25;2.08;;;;;;;9.38;87.28;99670.91;4974011;28;20065;-61
2021/11/01 02:57:15;;;;;;;7.10;1.73;;;;;;;9.39;86.98;99672.63;4973489;28;20031;-62
2021/11/01 02:59:40;;;;;;;9.57;2.28;;;;;;;9.38;87.17;99679.69;4999816;28;20081;-61
2021/11/01 03:02:06;;;;;;;11.00;2.00;;;;;;;9.38;87.32;99682.31;5074139;28;20460;-62
2021/11/01 03:04:31;;;;;;;7.50;1.95;;;;;;;9.37;87.51;99691.19;5073775;28;20492;-62
2021/11/01 03:06:57;;;;;;;6.60;1.90;;;;;;;9.41;87.19;99686.56;5074182;28;20028;-62
2021/11/01 03:09:24;;;;;;;7.25;2.03;;;;;;;9.38;87.50;99684.13;5074156;28;20029;-62
2021/11/01 03:11:50;;;;;;;10.68;1.98;;;;;;;9.34;87.46;99694.84;5073991;28;20032;-62
2021/11/01 03:14:20;;;;;;;6.40;1.70;;;;;;;9.35;87.07;99680.69;5073721;28;20461;-62
2021/11/01 03:16:47;;;;;;;8.13;1.70;;;;;;;9.38;85.98;99674.38;5073906;28;20037;-62
2021/11/01 03:19:19;;;;;;;7.03;1.98;;;;;;;9.38;86.74;99682.31;5073215;28;20025;-62
2021/11/01 03:21:46;;;;;;;10.60;1.80;;;;;;;9.36;86.90;99678.94;5055675;28;20059;-63
2021/11/01 03:24:14;;;;;;;7.80;1.90;;;;;;;9.29;87.34;99677.56;5073979;28;20032;-65
2021/11/01 03:26:42;;;;;;;8.10;1.80;;;;;;;9.27;88.08;99679.44;5073942;28;20179;-62
2021/11/01 03:29:09;;;;;;;15.90;2.33;;;;;;;9.25;88.24;99668.13;5073927;28;20027;-63
2021/11/01 03:31:36;;;;;;;7.88;2.20;;;;;;;9.23;88.07;99664.72;5073500;28;20111;-71
2021/11/01 03:34:03;;;;;;;8.85;1.90;;;;;;;9.18;88.46;99665.84;5073500;28;20108;-62
2021/11/01 03:36:29;;;;;;;8.52;1.88;;;;;;;9.18;88.25;99663.19;5073310;28;20045;-62
2021/11/01 03:38:56;;;;;;;12.18;2.05;;;;;;;9.17;88.45;99666.78;5073441;28;20032;-62
2021/11/01 03:41:24;;;;;;;9.13;1.88;;;;;;;9.11;88.70;99667.13;5073595;28;20029;-62
2021/11/01 03:43:59;;;;;;;10.38;2.10;;;;;;;9.07;88.56;99668.25;5073480;28;20050;-62
2021/11/01 03:46:33;;;;;;;12.45;2.03;;;;;;;9.09;88.65;99670.78;5073249;28;20025;-63
2021/11/01 03:48:59;;;;;;;8.50;2.10;;;;;;;9.05;89.46;99664.84;5073436;28;20032;-62
2021/11/01 03:54:08;;;;;;;10.00;2.40;;;;;;;8.90;90.08;99671.88;5073572;28;20399;-62
2021/11/01 03:56:35;;;;;;;9.35;2.10;;;;;;;8.88;90.55;99659.69;5073238;28;20028;-62
2021/11/01 03:59:01;;;;;;;11.32;2.28;;;;;;;8.84;91.01;99661.66;5073450;28;20027;-68
2021/11/01 04:01:27;;;;;;;7.53;2.03;;;;;;;8.84;90.97;99670.41;5072871;28;20029;-62
2021/11/01 04:03:53;;;;;;;8.77;2.40;;;;;;;8.89;90.78;99656.94;5073380;28;20102;-61
2021/11/01 04:06:19;;;;;;;11.30;2.78;;;;;;;8.87;91.25;99657.97;5072986;28;20031;-61
2021/11/01 04:08:45;;;;;;;15.95;2.60;;;;;;;8.85;90.94;99658.06;5073410;28;20021;-62
2021/11/01 04:11:13;;;;;;;12.38;2.20;;;;;;;8.81;91.57;99669.72;5072741;28;20082;-62
2021/11/01 04:13:39;;;;;;;9.85;2.17;;;;;;;8.84;91.19;99669.56;5073363;28;20095;-61
2021/11/01 04:16:13;;;;;;;14.00;2.30;;;;;;;8.85;90.84;99664.19;5072928;28;20036;-70
2021/11/01 04:19:00;;;;;;;7.97;2.08;;;;;;;8.89;90.80;99650.81;5053450;28;20024;-62
2021/11/01 04:21:26;;;;;;;9.98;2.08;;;;;;;8.93;90.87;99655.84;5054232;28;20085;-62
2021/11/01 04:23:53;;;;;;;12.23;2.30;;;;;;;8.99;90.39;99650.22;5072829;28;20020;-62
2021/11/01 04:26:20;;;;;;;13.68;2.50;;;;;;;9.05;90.13;99650.78;5073147;28;20009;-63
2021/11/01 04:28:46;;;;;;;9.85;2.25;;;;;;;9.09;90.29;99657.59;5072625;28;20491;-69
2021/11/01 04:31:13;;;;;;;12.57;2.30;;;;;;;9.09;89.96;99647.03;5072881;28;20020;-69
2021/11/01 04:33:41;;;;;;;12.13;2.38;;;;;;;9.09;89.79;99657.59;5072929;28;20035;-62
2021/11/01 04:36:06;;;;;;;12.52;2.50;;;;;;;9.12;89.85;99663.56;5072949;28;20097;-62
2021/11/01 04:41:35;;;;;;;10.80;2.30;;;;;;;9.14;89.96;99666.97;5010851;28;20048;-62
2021/11/01 04:54:56;;;;;;;9.13;2.20;;;;;;;9.07;89.48;99675.34;5010527;28;20041;-65
2021/11/01 04:57:21;;;;;;;11.73;2.00;;;;;;;9.05;90.20;99674.56;5011012;28;20030;-62
2021/11/01 04:59:48;;;;;;;13.23;2.20;;;;;;;9.06;89.33;99685.03;5010610;28;20545;-62
2021/11/01 05:02:13;;;;;;;7.88;2.00;;;;;;;9.05;90.14;99685.13;5011003;28;20100;-61
2021/11/01 05:04:41;;;;;;;11.00;2.17;;;;;;;9.06;89.55;99677.09;5010605;28;20077;-69
2021/11/01 05:07:07;;;;;;;9.60;2.10;;;;;;;9.02;89.09;99689.63;5010837;28;20508;-61
2021/11/01 05:12:06;;;;;;;9.98;1.83;;;;;;;8.91;89.74;99689.38;5010850;28;20073;-61
2021/11/01 05:14:54;;;;;;;7.95;2.03;;;;;;;8.88;89.71;99679.00;5010689;28;20034;-69
2021/11/01 05:22:43;;;;;;;8.10;2.10;;;;;;;8.76;90.27;99685.84;5072353;28;20039;-63
2021/11/01 05:30:36;;;;;;;13.82;2.80;;;;;;;8.77;90.13;99691.94;5072842;28;20097;-62
2021/11/01 05:33:23;;;;;;;8.50;2.55;;;;;;;8.79;90.02;99692.72;5071544;28;20491;-62
2021/11/01 05:35:48;;;;;;;7.40;1.98;;;;;;;8.79;89.88;99688.28;5072247;28;20085;-61
2021/11/01 05:38:13;;;;;;;12.07;2.40;;;;;;;8.80;89.42;99718.19;5072065;28;20103;-67
2021/11/01 05:40:39;;;;;;;7.43;2.20;;;;;;;8.79;90.20;99690.09;5072201;28;20025;-62
2021/11/01 05:43:04;;;;;;;12.75;2.53;;;;;;;8.77;90.00;99692.81;5074889;28;20109;-61
2021/11/01 05:45:30;;;;;;;9.77;2.20;;;;;;;8.78;89.99;99693.66;5076107;28;20491;-64
2021/11/01 05:48:01;;;;;;;7.70;1.90;;;;;;;8.76;90.05;99706.94;5075326;28;20488;-70
2021/11/01 05:50:30;;;;;;;10.57;2.67;;;;;;;8.73;90.38;99699.19;5075882;28;20016;-62
2021/11/01 05:52:58;;;;;;;11.02;2.53;;;;;;;8.72;90.34;99701.91;5075005;28;20105;-62
2021/11/01 05:55:40;;;;;;;12.60;2.60;;;;;;;8.79;90.26;99692.72;5075371;28;20031;-62
2021/11/01 05:58:13;;;;;;;9.75;2.35;;;;;;;8.84;89.50;99714.44;5075546;28;20027;-65
2021/11/01 06:00:56;;;;;;;9.52;2.30;;;;;;;8.82;89.44;99697.81;5075525;28;20033;-66
2021/11/01 06:15:52;;;;;;;9.43;2.73;;;;;;;8.58;89.90;99718.50;5055795;28;20048;-61
2021/11/01 06:18:17;;;;;;;10.93;2.20;;;;;;;8.53;90.05;99719.63;5057228;28;20384;-65
2021/11/01 06:20:43;;;;;;;9.15;2.20;;;;;;;8.52;90.81;99722.34;5079322;28;20039;-62
2021/11/01 06:23:08;;;;;;;10.13;2.10;;;;;;;8.52;90.67;99723.19;5074670;28;20028;-62
2021/11/01 06:25:35;;;;;;;8.10;2.55;;;;;;;8.52;90.42;99725.81;5074600;28;20020;-62
2021/11/01 06:28:00;;;;;;;8.23;2.05;;;;;;;8.55;90.49;99723.97;5073963;28;20055;-63
2021/11/01 06:30:40;;;;;;;13.13;2.33;;;;;;;8.55;90.03;99723.97;5073156;28;20594;-69
2021/11/01 06:54:51;;;;;;;6.55;1.83;;;;;;;8.97;88.72;99744.50;5074256;28;20033;-70
2021/11/01 06:57:23;;;;;;;11.18;2.17;;;;;;;9.02;88.52;99747.72;5073481;28;20089;-62
2021/11/01 07:21:38;;;;;;;7.60;2.00;;;;;;;9.22;87.70;99734.34;5072839;28;20194;-69
2021/11/01 08:21:53;;;;;;;6.18;1.88;;;;;;;9.55;84.24;99788.84;5069244;28;20598;-62
2021/11/01 08:36:00;;;;;;;7.13;1.73;;;;;;;10.77;79.00;99798.34;4971588;28;20045;-69
2021/11/01 08:49:14;;;;;;;4.85;1.58;;;;;;;13.17;67.86;99769.03;4983180;28;20506;-64
2021/11/01 09:05:37;;;;;;;6.82;1.80;;;;;;;14.21;62.74;99775.50;4971290;28;20098;-60
2021/11/01 09:18:51;;;;;;;8.48;1.75;;;;;;;14.88;60.57;99779.16;5076184;28;20040;-69
2021/11/01 09:21:33;;;;;;;6.10;1.90;;;;;;;14.95;61.31;99792.00;5075877;28;20024;-59
2021/11/01 09:26:48;;;;;;;5.07;2.00;;;;;;;14.98;58.49;99791.78;5055632;28;20048;-62
2021/11/01 09:29:29;;;;;;;6.05;1.70;;;;;;;15.01;59.46;99795.06;5055655;28;20024;-62
2021/11/01 09:40:55;;;;;;;7.22;1.60;;;;;;;15.47;56.48;99824.28;5055710;28;20033;-62
2021/11/01 09:42:46;;;;;;;4.25;1.40;;;;;;;15.51;55.76;99791.91;5069135;28;20094;-64
2021/11/01 09:45:12;;;;;;;;;;;;;;;15.69;54.50;99788.66;5075885;28;20027;-62
2021/11/01 09:47:41;;;;;;;6.20;1.60;;;;;;;16.27;54.60;99817.66;5075242;28;19912;-64
2021/11/01 09:50:07;;;;;;;5.75;1.90;;;;;;;15.50;56.60;99810.69;5074754;28;20033;-62
2021/11/01 09:52:34;;;;;;;7.10;1.67;;;;;;;15.81;55.96;99803.69;5074822;28;20081;-63
2021/11/01 09:55:10;;;;;;;7.57;1.58;;;;;;;16.16;54.60;99801.72;5074352;28;20024;-67
2021/11/01 09:57:47;;;;;;;11.40;1.95;;;;;;;16.53;53.70;99799.41;5067718;28;20059;-61
2021/11/01 10:00:13;;;;;;;5.00;1.60;;;;;;;16.85;51.88;99801.09;5069552;28;20128;-65
2021/11/01 10:02:46;;;;;;;11.20;1.77;;;;;;;16.91;51.55;99801.56;5079084;28;20440;-66
2021/11/01 10:05:25;;;;;;;5.13;1.63;;;;;;;16.86;52.05;99809.97;5073976;28;20063;-61
2021/11/01 10:07:50;;;;;;;5.95;1.60;;;;;;;16.88;50.47;99810.69;5075995;28;20032;-59
2021/11/01 10:10:16;;;;;;;6.05;1.70;;;;;;;17.14;50.82;99811.06;5074337;28;20063;-67
2021/11/01 10:12:44;;;;;;;5.65;1.45;;;;;;;17.48;50.25;99817.88;5070813;28;20020;-69
2021/11/01 10:18:04;;;;;;;5.35;1.30;;;;;;;17.57;50.24;99801.00;5074641;28;20153;-62
2021/11/01 10:20:32;;;;;;;5.53;1.60;;;;;;;17.18;50.04;99799.09;5073810;28;20032;-64
2021/11/01 10:22:57;;;;;;;5.72;1.90;;;;;;;16.98;51.87;99805.38;5071028;28;20058;-59
2021/11/01 10:25:24;;;;;;;5.75;1.60;;;;;;;17.41;50.25;99806.91;5074256;28;20466;-64
2021/11/01 10:27:56;;;;;;;5.18;1.98;;;;;;;17.32;49.37;99811.25;5070048;28;20048;-63
2021/11/01 10:30:28;;;;;;;4.97;1.40;;;;;;;17.82;48.61;99812.16;5074019;28;20046;-64
2021/11/01 10:32:55;;;;;;;6.15;1.70;;;;;;;17.49;49.76;99815.09;5079074;28;20383;-64
2021/11/01 10:35:25;;;;;;;6.90;1.35;;;;;;;17.56;49.18;99811.84;5078340;28;20082;-60
2021/11/01 10:40:36;;;;;;;6.78;2.25;;;;;;;17.00;51.13;99831.00;5074691;28;20039;-68
2021/11/01 10:43:38;;;;;;;4.82;1.60;;;;;;;17.07;50.49;99831.31;5074532;28;20031;-59
2021/11/01 10:46:25;;;;;;;4.65;1.70;;;;;;;17.44;49.85;99825.38;5067313;28;20085;-61
2021/11/01 11:13:25;;;;;;;4.30;1.25;;;;;;;16.94;50.29;99830.72;5072617;28;20043;-63
2021/11/01 11:15:56;;;;;;;4.03;1.60;;;;;;;16.66;51.51;99827.72;5092685;28;20024;-63
2021/11/01 11:21:56;;;;;;;5.60;1.50;;;;;;;16.84;50.89;99844.00;4986174;28;20072;-69
2021/11/01 11:27:27;;;;;;;3.90;1.60;;;;;;;17.06;49.79;99839.47;4998930;28;20717;-62
2021/11/01 11:50:41;;;;;;;4.10;1.52;;;;;;;17.36;49.40;99834.06;5005160;28;20041;-63
2021/11/01 11:53:18;;;;;;;5.80;1.50;;;;;;;17.09;50.08;99821.31;5048333;28;20147;-68
2021/11/01 11:55:57;;;;;;;8.00;1.58;;;;;;;17.23;48.97;99854.88;5064490;28;20020;-68
2021/11/01 11:58:50;;;;;;;5.85;1.48;;;;;;;17.17;49.77;99826.84;5072206;28;20522;-63
2021/11/01 12:01:21;;;;;;;5.05;1.67;;;;;;;17.19;50.12;99822.19;5073028;28;20056;-65
2021/11/01 12:03:46;;;;;;;4.30;1.60;;;;;;;17.15;49.66;99811.94;5072564;28;20020;-69
2021/11/01 12:06:15;;;;;;;4.43;1.48;;;;;;;16.94;49.08;99849.44;5072443;28;20108;-68
2021/11/01 12:08:45;;;;;;;5.65;1.90;;;;;;;17.20;50.02;99818.53;5071795;28;20032;-67
2021/11/01 12:19:06;;;;;;;5.07;1.60;;;;;;;18.07;48.08;99826.84;5071522;28;20348;-62
2021/11/01 12:21:33;;;;;;;3.90;1.52;;;;;;;17.96;47.88;99832.34;5072124;28;20038;-64
2021/11/01 12:23:59;;;;;;;7.75;2.00;;;;;;;17.41;48.40;99836.34;5072717;28;20028;-63
2021/11/01 12:26:26;;;;;;;3.85;1.50;;;;;;;16.86;50.14;99832.19;5072019;28;20464;-62
2021/11/01 12:28:56;;;;;;;5.03;1.63;;;;;;;17.06;49.64;99831.44;5072330;28;20058;-64
2021/11/01 12:31:23;;;;;;;5.70;1.58;;;;;;;17.33;49.33;99822.81;5072443;28;20020;-68
2021/11/01 12:34:03;;;;;;;4.30;1.27;;;;;;;16.75;48.28;99807.38;5072048;28;20123;-66
2021/11/01 12:58:25;;;;;;;4.60;1.55;;;;;;;15.95;53.44;99833.75;4936529;29;20412;-61
2021/11/01 13:00:51;;;;;;;6.53;1.75;;;;;;;15.92;52.98;99828.66;4935051;28;20127;-60
2021/11/01 13:03:21;;;;;;;6.32;1.60;;;;;;;15.80;54.28;99839.34;4935150;29;20039;-63
2021/11/01 13:05:57;;;;;;;8.38;1.80;;;;;;;15.75;54.62;99844.22;4934824;29;20027;-61
2021/11/01 13:08:35;;;;;;;7.35;1.80;;;;;;;15.61;54.80;99837.34;4935962;29;20430;-63
2021/11/01 13:11:05;;;;;;;7.28;2.10;;;;;;;15.35;55.57;99818.16;4939924;29;20023;-64
2021/11/01 13:13:44;;;;;;;6.25;1.83;;;;;;;14.91;56.92;99832.25;4933507;29;20123;-64
2021/11/01 13:19:07;;;;;;;8.27;1.80;;;;;;;14.52;57.56;99839.69;4987961;28;20084;-68
2021/11/01 13:21:56;;;;;;;8.13;1.90;;;;;;;14.07;59.92;99831.63;4981506;28;20063;-67
2021/11/01 13:24:21;;;;;;;6.35;1.90;;;;;;;14.06;59.75;99825.44;4989429;28;20053;-64
2021/11/01 13:27:12;;;;;;;7.43;1.98;;;;;;;13.86;61.07;99834.06;4994788;28;20050;-67
2021/11/01 13:37:42;;;;;;;7.72;2.47;;;;;;;13.62;62.46;99834.06;5073935;28;20087;-65
2021/11/01 13:40:15;;;;;;;8.70;2.03;;;;;;;13.52;63.71;99832.09;5075784;28;20073;-68
2021/11/01 13:42:52;;;;;;;8.90;2.13;;;;;;;13.59;63.36;99841.34;5074636;28;20115;-67
2021/11/01 13:45:20;;;;;;;7.90;2.00;;;;;;;13.53;62.25;99832.94;5075679;28;20473;-63
2021/11/01 13:47:48;;;;;;;9.20;2.60;;;;;;;13.48;62.23;99827.97;5075262;28;20036;-67
2021/11/01 13:50:16;;;;;;;8.80;2.65;;;;;;;13.43;63.20;99830.97;5072371;28;20031;-63
2021/11/01 13:52:45;;;;;;;12.43;2.60;;;;;;;13.45;63.63;99806.91;5070850;28;20047;-58
2021/11/01 13:55:22;;;;;;;12.45;2.63;;;;;;;13.35;63.55;99812.03;5073465;28;20040;-58
2021/11/01 13:57:58;;;;;;;9.00;2.28;;;;;;;13.22;64.80;99811.22;5082601;28;20086;-60
2021/11/01 14:00:36;;;;;;;6.93;2.22;;;;;;;13.18;63.91;99815.91;5074770;28;20060;-68
2021/11/01 14:11:20;;;;;;;6.78;1.85;;;;;;;13.16;63.43;99827.59;5075308;28;20408;-58
2021/11/01 14:19:25;;;;;;;7.25;2.00;;;;;;;12.73;64.37;99834.16;4992754;28;20521;-69
2021/11/01 15:16:08;;;;;;;4.45;1.55;;;;;;;11.20;71.77;99847.78;5045289;28;20036;-68
2021/11/01 15:21:09;;;;;;;7.05;1.50;;;;;;;11.06;75.15;99853.94;5072495;28;20089;-69
2021/11/01 15:24:09;;;;;;;;;;;;;;;10.94;75.54;99852.88;5072575;28;20040;-69
2021/11/01 15:26:56;;;;;;;3.00;1.50;;;;;;;10.99;75.84;99842.03;5069300;28;19923;-69
2021/11/01 16:18:14;;;;;;;1.65;0.88;;;;;;;9.85;77.67;99868.19;5072459;28;20400;-68
2021/11/01 16:20:42;;;;;;;1.17;0.80;;;;;;;9.82;77.52;99857.75;5071811;28;20468;-64
2021/11/01 16:25:33;;;;;;;2.08;0.85;;;;;;;9.72;77.79;99864.50;5072013;28;20032;-68
2021/11/01 16:27:59;;;;;;;2.17;1.10;;;;;;;9.65;78.14;99878.09;5069501;28;20033;-68
2021/11/01 16:30:27;;;;;;;1.70;0.80;;;;;;;9.59;78.09;99878.44;5071705;28;20040;-68
2021/11/01 16:33:00;;;;;;;2.80;1.00;;;;;;;9.54;78.44;99879.63;5071056;28;20083;-60
2021/11/01 16:35:32;;;;;;;5.65;1.00;;;;;;;9.49;77.81;99874.63;5071205;28;20044;-69
2021/11/01 16:38:05;;;;;;;3.95;1.05;;;;;;;9.45;77.88;99881.84;5072177;28;20456;-68
2021/11/01 16:40:33;;;;;;;1.42;0.90;;;;;;;9.42;78.49;99889.94;5072578;28;20100;-68
2021/11/01 16:42:59;;;;;;;3.22;1.42;;;;;;;9.38;78.00;99880.47;5072219;28;20036;-62
2021/11/01 16:47:52;;;;;;;3.53;1.00;;;;;;;9.30;78.06;99890.63;5072595;28;20032;-68
2021/11/01 16:50:18;;;;;;;2.60;1.10;;;;;;;9.25;78.62;99888.22;5071718;28;20024;-66
2021/11/01 16:52:47;;;;;;;3.97;1.38;;;;;;;9.22;78.74;99887.53;5071887;28;20413;-67
2021/11/01 16:55:26;;;;;;;4.82;2.25;;;;;;;9.18;78.52;99902.69;5071977;28;20033;-61
2021/11/01 16:57:57;;;;;;;5.43;1.30;;;;;;;9.15;79.26;99901.06;5071686;28;20112;-65
2021/11/01 17:27:05;;;;;;;3.10;1.25;;;;;;;8.67;84.80;99908.88;5072051;28;20549;-62
2021/11/01 17:30:05;;;;;;;3.75;1.15;;;;;;;8.65;84.86;99905.47;5085246;28;20078;-61
2021/11/01 18:41:18;;;;;;;6.63;3.17;;;;;;;8.26;90.78;99947.88;5073634;28;20580;-61
2021/11/01 18:51:59;;;;;;;4.47;2.53;;;;;;;8.23;90.36;99975.25;5074444;28;20554;-64
2021/11/01 18:54:34;;;;;;;4.60;2.50;;;;;;;8.23;90.28;99964.72;5074668;28;20036;-67
2021/11/01 18:57:00;;;;;;;4.32;2.30;;;;;;;8.22;90.12;99964.81;5073575;28;20366;-65
2021/11/01 18:59:26;;;;;;;9.18;2.63;;;;;;;8.20;90.68;99973.63;5073491;28;20477;-67
2021/11/01 19:02:06;;;;;;;6.57;2.63;;;;;;;8.20;89.73;99978.06;5074405;28;20040;-67
2021/11/01 19:04:39;;;;;;;6.72;2.60;;;;;;;8.17;90.09;99975.56;5073533;28;20029;-66
2021/11/01 19:07:11;;;;;;;5.28;2.47;;;;;;;8.13;90.49;99984.56;5054494;28;20028;-67
2021/11/01 19:09:47;;;;;;;;;;;;;;;8.14;90.16;99983.63;5071010;28;20090;-67
2021/11/01 20:04:34;;;;;;;7.53;2.45;;;;;;;7.98;88.39;99957.13;5011436;28;20044;-66
2021/11/01 20:07:24;;;;;;;4.78;2.30;;;;;;;7.96;88.20;99951.94;5009577;28;20053;-63
2021/11/01 20:15:12;;;;;;;4.32;2.50;;;;;;;7.87;88.64;99962.94;5011255;28;20121;-65
2021/11/01 21:27:00;;;;;;;5.30;2.65;;;;;;;7.27;90.48;99969.19;5075145;28;20039;-60
2021/11/01 21:29:27;;;;;;;10.25;2.70;;;;;;;7.24;90.87;99969.34;5076305;28;20024;-61
2021/11/01 21:31:52;;;;;;;6.22;2.70;;;;;;;7.26;90.86;99962.22;5075156;28;20025;-61
2021/11/01 21:34:27;;;;;;;6.35;2.75;;;;;;;7.26;90.83;99964.84;5073800;28;20039;-54
2021/11/01 21:36:54;;;;;;;4.95;2.60;;;;;;;7.28;90.76;99963.00;5075024;28;20080;-61
2021/11/01 21:39:19;;;;;;;5.82;2.63;;;;;;;7.27;90.69;99965.72;5075846;28;20029;-56
2021/11/01 21:41:45;;;;;;;5.82;2.63;;;;;;;7.27;90.92;99963.94;5075081;28;20115;-62
2021/11/01 21:44:10;;;;;;;4.47;2.38;;;;;;;7.31;90.22;99962.03;5072457;28;20032;-61
2021/11/01 21:46:36;;;;;;;6.50;3.08;;;;;;;7.26;90.33;99967.47;5073538;28;20089;-62
2021/11/01 21:49:01;;;;;;;6.90;2.92;;;;;;;7.21;90.72;99969.47;5072553;28;20387;-61
2021/11/01 21:51:28;;;;;;;5.95;3.13;;;;;;;7.18;90.60;99988.06;5074802;28;20020;-63
2021/11/01 21:54:05;;;;;;;11.07;3.13;;;;;;;7.13;91.16;99976.88;5074075;28;20099;-62
2021/11/01 21:56:32;;;;;;;5.13;2.75;;;;;;;7.10;91.55;99975.22;5075319;28;20120;-60
2021/11/01 22:20:29;;;;;;;5.73;3.40;;;;;;;6.93;92.75;99968.09;4992445;28;20057;-66
2021/11/01 22:23:06;;;;;;;6.03;3.20;;;;;;;6.93;93.00;99983.88;4992704;28;20293;-64
2021/11/01 22:25:40;;;;;;;8.73;3.63;;;;;;;6.92;92.96;99976.91;4993035;28;20030;-61
2021/11/01 22:34:36;;;;;;;9.48;4.18;;;;;;;6.86;93.23;99969.25;4994297;28;20045;-63
2021/11/01 22:39:19;;;;;;;6.55;3.92;;;;;;;6.77;93.44;99972.28;4993610;28;20082;-61
2021/11/01 22:57:27;;;;;;;9.48;4.38;;;;;;;6.60;94.97;99973.00;5073410;28;20039;-61
2021/11/01 22:59:53;;;;;;;7.63;4.78;;;;;;;6.61;95.80;99965.06;5072746;28;20122;-67
2021/11/01 23:02:19;;;;;;;7.10;4.30;;;;;;;6.59;95.55;99961.63;5073758;28;20060;-64
2021/11/01 23:04:55;;;;;;;8.63;4.80;;;;;;;6.58;95.68;99959.91;5074289;28;20028;-68
2021/11/01 23:32:02;;;;;;;8.05;5.15;;;;;;;6.56;96.76;99951.25;5012406;28;20045;-68
2021/11/01 23:34:28;;;;;;;14.45;5.40;;;;;;;6.53;96.87;99956.63;5011866;28;20049;-68
2021/11/01 23:36:56;;;;;;;10.65;5.95;;;;;;;6.49;97.35;99957.69;5011634;28;20080;-66
2021/11/01 23:39:21;;;;;;;11.95;6.95;;;;;;;6.50;97.33;99952.34;5011952;28;20025;-67
2021/11/01 23:41:48;;;;;;;11.73;6.10;;;;;;;6.47;97.62;99941.97;5011868;28;20123;-61
2021/11/01 23:44:16;;;;;;;10.38;5.78;;;;;;;6.42;97.51;99943.94;5011670;28;20541;-68
2021/11/01 23:46:42;;;;;;;12.20;5.93;;;;;;;6.46;97.67;99948.16;5011447;28;20025;-68
2021/11/01 23:49:08;;;;;;;10.05;5.55;;;;;;;6.47;97.88;99946.34;5011994;28;20037;-68
2021/11/01 23:51:36;;;;;;;10.68;6.05;;;;;;;6.46;98.33;99942.00;5011509;28;20485;-66
2021/11/01 23:56:37;;;;;;;9.77;6.32;;;;;;;6.47;98.27;99936.72;5011445;28;20480;-61